Time;durP1;ratioP1;P1;durP2;ratioP2;P2;SDS_P1;SDS_P2;PMS_P1;PMS_P2;Temp;Humidity;BMP_temperature;BMP_pressure;BME280_temperature;BME280_humidity;BME280_pressure;Samples;Min_cycle;Max_cycle;Signal;HPM_P1;HPM_P2
2022/07/25 00:02:05;;;;;;;4.13;3.15;;;22.00;1.00;;;;;;5056123;28;20481;-27
2022/07/25 00:04:31;;;;;;;4.18;2.20;;;22.00;1.00;;;;;;5054509;28;20052;-27
2022/07/25 00:06:57;;;;;;;2.42;2.10;;;22.00;1.00;;;;;;5054450;28;20517;-27
2022/07/25 00:09:22;;;;;;;3.30;2.55;;;22.00;1.00;;;;;;5058455;28;20045;-27
2022/07/25 00:11:48;;;;;;;2.42;2.22;;;22.10;1.00;;;;;;5055339;28;20045;-27
2022/07/25 00:14:14;;;;;;;6.55;3.03;;;22.10;1.00;;;;;;5053936;28;20060;-28
2022/07/25 00:16:40;;;;;;;3.00;2.67;;;22.10;1.00;;;;;;5053567;28;20124;-27
2022/07/25 00:19:05;;;;;;;3.67;2.30;;;22.10;1.00;;;;;;5053117;28;20466;-27
2022/07/25 00:21:31;;;;;;;5.30;2.63;;;22.10;1.00;;;;;;5037004;28;20044;-27
2022/07/25 00:23:57;;;;;;;4.28;2.58;;;22.10;1.00;;;;;;5054401;28;20044;-27
2022/07/25 00:26:23;;;;;;;3.92;2.55;;;22.10;1.00;;;;;;5054294;28;20123;-27
2022/07/25 00:28:48;;;;;;;3.20;2.25;;;22.00;1.00;;;;;;5053471;28;20120;-27
2022/07/25 00:31:14;;;;;;;3.60;2.65;;;22.00;1.00;;;;;;5055182;28;20055;-27
2022/07/25 00:33:40;;;;;;;4.68;2.05;;;22.00;1.00;;;;;;5054973;28;20045;-27
2022/07/25 00:36:07;;;;;;;3.78;2.38;;;22.00;1.00;;;;;;5052990;28;20045;-27
2022/07/25 00:38:33;;;;;;;4.03;2.30;;;22.00;1.00;;;;;;5055093;28;20041;-27
2022/07/25 00:40:58;;;;;;;3.50;2.35;;;22.00;1.00;;;;;;5054183;28;20638;-27
2022/07/25 00:43:24;;;;;;;4.95;2.78;;;22.00;1.00;;;;;;5054001;28;20049;-27
2022/07/25 00:45:50;;;;;;;3.60;2.38;;;22.10;1.00;;;;;;5053036;28;20071;-28
2022/07/25 00:48:15;;;;;;;4.68;2.40;;;22.10;1.00;;;;;;5041628;28;20044;-27
2022/07/25 00:50:42;;;;;;;4.30;2.53;;;22.10;1.00;;;;;;5040437;28;20044;-27
2022/07/25 00:53:08;;;;;;;4.20;2.50;;;22.10;1.00;;;;;;5053679;28;20041;-27
2022/07/25 00:55:34;;;;;;;3.28;2.67;;;22.00;1.00;;;;;;5055081;28;20052;-28
2022/07/25 00:57:59;;;;;;;4.70;2.38;;;22.10;1.00;;;;;;5054422;28;20048;-27
2022/07/25 01:00:25;;;;;;;3.40;2.60;;;22.10;1.00;;;;;;5052703;28;20036;-27
2022/07/25 01:02:52;;;;;;;5.00;2.83;;;22.00;1.00;;;;;;5054480;28;20052;-28
2022/07/25 01:05:18;;;;;;;2.75;2.25;;;22.00;1.00;;;;;;5053335;28;20426;-27
2022/07/25 01:07:44;;;;;;;3.25;2.67;;;22.00;1.00;;;;;;5054298;28;20084;-27
2022/07/25 01:10:10;;;;;;;2.58;2.38;;;21.90;1.00;;;;;;5057004;28;20041;-27
2022/07/25 01:12:51;;;;;;;3.65;2.35;;;21.90;1.00;;;;;;5053198;28;20052;-27
2022/07/25 01:15:19;;;;;;;3.42;2.42;;;21.80;1.00;;;;;;5052242;28;20041;-27
2022/07/25 01:17:45;;;;;;;3.53;2.47;;;21.80;1.00;;;;;;5053364;28;20158;-27
2022/07/25 01:20:30;;;;;;;1518.75;757.35;;;21.80;1.00;;;;;;5053259;28;20135;-27
2022/07/25 01:22:56;;;;;;;1999.90;999.90;;;21.70;1.00;;;;;;5052334;28;20371;-27
2022/07/25 01:25:23;;;;;;;1644.93;765.63;;;21.60;1.00;;;;;;5052814;28;20403;-27
2022/07/25 01:27:50;;;;;;;410.67;112.93;;;21.50;1.00;;;;;;5051649;28;20052;-29
2022/07/25 01:30:16;;;;;;;4.03;2.70;;;21.50;1.00;;;;;;5068195;28;20186;-27
2022/07/25 01:32:43;;;;;;;3.05;2.75;;;21.50;1.00;;;;;;5036896;28;20051;-27
2022/07/25 01:35:11;;;;;;;4.32;3.40;;;21.20;1.00;;;;;;5052947;28;20122;-27
2022/07/25 01:37:37;;;;;;;4.45;3.20;;;20.90;99.90;;;;;;5052759;28;20413;-27
2022/07/25 01:40:04;;;;;;;4.10;3.70;;;20.70;99.90;;;;;;5052072;28;20045;-27
2022/07/25 01:42:29;;;;;;;5.05;4.07;;;20.60;99.90;;;;;;5053014;28;20048;-27
2022/07/25 01:44:55;;;;;;;4.78;3.80;;;20.60;99.90;;;;;;5052127;28;20578;-28
2022/07/25 01:47:21;;;;;;;5.43;4.05;;;20.60;99.90;;;;;;5053921;28;20049;-27
2022/07/25 01:49:47;;;;;;;4.70;4.00;;;20.40;99.90;;;;;;5052075;28;20037;-26
2022/07/25 01:52:13;;;;;;;5.85;4.18;;;20.30;99.90;;;;;;5053254;28;20449;-27
2022/07/25 01:54:39;;;;;;;4.80;3.80;;;20.30;99.90;;;;;;5050556;28;20107;-27
2022/07/25 01:57:06;;;;;;;7.43;4.45;;;20.20;99.90;;;;;;5052594;28;20133;-27
2022/07/25 01:59:32;;;;;;;4.60;4.20;;;20.30;99.90;;;;;;5052713;28;20033;-27
2022/07/25 02:01:58;;;;;;;5.50;4.70;;;20.30;99.90;;;;;;5052018;28;20406;-27
2022/07/25 02:04:23;;;;;;;7.50;4.75;;;20.30;99.90;;;;;;5051999;28;20041;-27
2022/07/25 02:06:51;;;;;;;6.88;4.90;;;20.30;99.90;;;;;;5052360;28;20060;-27
2022/07/25 02:09:16;;;;;;;5.97;4.85;;;20.30;1.00;;;;;;5055591;28;20470;-27
2022/07/25 02:11:42;;;;;;;8.00;5.20;;;20.20;1.00;;;;;;5054063;28;20183;-27
2022/07/25 02:14:08;;;;;;;9.43;4.53;;;20.20;1.00;;;;;;5052748;28;20041;-27
2022/07/25 02:16:33;;;;;;;6.03;4.93;;;20.10;1.00;;;;;;5051633;28;20045;-27
2022/07/25 02:18:59;;;;;;;6.72;4.40;;;20.20;1.00;;;;;;5054320;28;20040;-27
2022/07/25 02:21:25;;;;;;;4.72;4.10;;;20.20;1.00;;;;;;5051869;28;20462;-28
2022/07/25 02:23:50;;;;;;;4.55;3.78;;;20.20;1.00;;;;;;5052531;28;20041;-27
2022/07/25 02:26:16;;;;;;;3.70;3.40;;;20.20;1.00;;;;;;5035651;28;20135;-27
2022/07/25 02:28:42;;;;;;;4.60;3.88;;;20.10;1.00;;;;;;5053295;28;20040;-27
2022/07/25 02:31:08;;;;;;;4.75;4.25;;;20.10;1.00;;;;;;5052588;28;20066;-27
2022/07/25 02:33:34;;;;;;;4.95;4.20;;;20.10;1.00;;;;;;5053280;28;20052;-27
2022/07/25 02:35:59;;;;;;;5.93;4.53;;;20.10;1.00;;;;;;5052528;28;20549;-27
2022/07/25 02:38:25;;;;;;;4.72;4.30;;;20.10;1.00;;;;;;5052700;28;20037;-27
2022/07/25 02:40:52;;;;;;;7.35;4.18;;;20.10;1.00;;;;;;5053044;28;20405;-27
2022/07/25 02:43:19;;;;;;;4.72;3.92;;;20.10;1.00;;;;;;5055810;28;20399;-27
2022/07/25 02:45:45;;;;;;;4.30;3.90;;;20.10;1.00;;;;;;5056191;28;20124;-28
2022/07/25 02:48:12;;;;;;;6.40;4.25;;;20.10;1.00;;;;;;5055125;28;20102;-27
2022/07/25 02:50:38;;;;;;;5.72;3.90;;;20.00;1.00;;;;;;5057597;28;20048;-27
2022/07/25 02:53:04;;;;;;;4.10;3.55;;;20.00;1.00;;;;;;5057447;28;20045;-27
2022/07/25 02:55:30;;;;;;;5.32;4.45;;;20.00;1.00;;;;;;5055162;28;20037;-27
2022/07/25 02:57:56;;;;;;;4.80;4.38;;;20.00;1.00;;;;;;5056231;28;20055;-27
2022/07/25 03:00:23;;;;;;;4.97;4.40;;;19.90;11.20;;;;;;5056953;28;20048;-27
2022/07/25 03:02:49;;;;;;;5.72;4.50;;;19.90;37.50;;;;;;5059322;28;20581;-27
2022/07/25 03:05:15;;;;;;;5.13;4.07;;;19.90;84.60;;;;;;5056402;28;20052;-27
2022/07/25 03:07:42;;;;;;;6.90;4.40;;;19.90;99.30;;;;;;5058210;28;20411;-26
2022/07/25 03:10:11;;;;;;;6.00;4.80;;;19.80;99.90;;;;;;5057156;28;20470;-26
2022/07/25 03:12:37;;;;;;;7.07;5.10;;;19.80;99.90;;;;;;5055154;28;20509;-27
2022/07/25 03:15:05;;;;;;;5.60;5.00;;;19.80;99.90;;;;;;5055736;28;20068;-26
2022/07/25 03:17:31;;;;;;;5.63;4.72;;;19.80;99.90;;;;;;5055311;28;20120;-26
2022/07/25 03:19:57;;;;;;;9.13;4.97;;;19.80;99.90;;;;;;5054392;28;20056;-26
2022/07/25 03:22:23;;;;;;;5.93;5.43;;;19.80;99.90;;;;;;5041953;28;20099;-26
2022/07/25 03:24:49;;;;;;;8.48;4.85;;;19.70;99.10;;;;;;5055707;28;20045;-26
2022/07/25 03:27:16;;;;;;;6.65;4.80;;;19.70;97.80;;;;;;5054906;28;20126;-26
2022/07/25 03:29:42;;;;;;;7.95;5.32;;;19.70;99.90;;;;;;5056162;28;20080;-27
2022/07/25 03:32:08;;;;;;;8.90;4.70;;;19.70;99.90;;;;;;5055681;28;20041;-26
2022/07/25 03:34:34;;;;;;;8.32;4.93;;;19.70;99.90;;;;;;5055406;28;20321;-26
2022/07/25 03:37:00;;;;;;;6.25;4.55;;;19.70;99.90;;;;;;5055042;28;20411;-26
2022/07/25 03:39:26;;;;;;;6.07;5.40;;;19.80;99.90;;;;;;5055953;28;20041;-26
2022/07/25 03:41:53;;;;;;;9.38;6.00;;;19.80;99.90;;;;;;5056600;28;20045;-26
2022/07/25 03:44:20;;;;;;;6.93;5.82;;;19.80;99.90;;;;;;5054405;28;20044;-26
2022/07/25 03:46:45;;;;;;;6.53;5.55;;;19.80;91.30;;;;;;5055824;28;20114;-27
2022/07/25 03:49:11;;;;;;;8.85;7.47;;;19.80;63.40;;;;;;5055344;28;20112;-26
2022/07/25 03:51:37;;;;;;;14.63;6.78;;;19.80;41.50;;;;;;5054789;28;20045;-26
2022/07/25 03:54:03;;;;;;;7.55;6.65;;;19.80;16.20;;;;;;5069803;28;20041;-26
2022/07/25 03:56:44;;;;;;;10.95;6.93;;;19.80;1.00;;;;;;5055159;28;20049;-26
2022/07/25 03:59:13;;;;;;;10.93;7.20;;;19.90;5.80;;;;;;5055839;28;20475;-26
2022/07/25 04:01:39;;;;;;;8.38;7.50;;;19.80;1.00;;;;;;5054027;28;20107;-26
2022/07/25 04:04:05;;;;;;;10.07;6.40;;;19.80;1.00;;;;;;5055297;28;20048;-26
2022/07/25 04:06:31;;;;;;;8.15;6.70;;;19.80;1.00;;;;;;5053532;28;20476;-26
2022/07/25 04:08:57;;;;;;;7.97;7.07;;;19.80;1.00;;;;;;5055450;28;20548;-26
2022/07/25 04:11:23;;;;;;;8.23;7.35;;;19.90;1.00;;;;;;5057454;28;20044;-26
2022/07/25 04:13:50;;;;;;;7.85;7.03;;;19.90;1.00;;;;;;5054658;28;20037;-26
2022/07/25 04:16:16;;;;;;;7.85;7.00;;;19.90;1.00;;;;;;5055307;28;20482;-26
2022/07/25 04:18:42;;;;;;;15.57;6.60;;;20.00;1.00;;;;;;5056009;28;20045;-26
2022/07/25 04:21:08;;;;;;;9.27;7.05;;;20.00;1.00;;;;;;5055230;28;20041;-26
2022/07/25 04:23:34;;;;;;;7.78;6.97;;;20.00;1.00;;;;;;5054537;28;20084;-26
2022/07/25 04:26:00;;;;;;;11.90;8.15;;;20.00;1.00;;;;;;5052653;28;20060;-26
2022/07/25 04:28:27;;;;;;;8.20;7.30;;;20.00;1.00;;;;;;5055571;28;20037;-26
2022/07/25 04:30:53;;;;;;;9.02;6.85;;;20.10;1.00;;;;;;5053590;28;20109;-26
2022/07/25 04:33:19;;;;;;;11.35;7.18;;;20.10;1.00;;;;;;5055854;28;20045;-26
2022/07/25 04:35:45;;;;;;;11.52;7.80;;;20.10;1.00;;;;;;5054317;28;20505;-26
2022/07/25 04:38:11;;;;;;;8.98;7.97;;;20.20;1.00;;;;;;5052956;28;20083;-26
2022/07/25 04:40:37;;;;;;;9.70;8.13;;;20.20;1.00;;;;;;5054225;28;20076;-27
2022/07/25 04:43:03;;;;;;;10.57;8.48;;;20.30;1.00;;;;;;5056861;28;20068;-26
2022/07/25 04:45:30;;;;;;;8.43;7.15;;;20.30;1.00;;;;;;5054752;28;20041;-25
2022/07/25 04:47:56;;;;;;;9.50;8.07;;;20.40;1.00;;;;;;5054726;28;20049;-26
2022/07/25 04:50:22;;;;;;;9.23;8.23;;;20.40;1.00;;;;;;5052787;28;20506;-26
2022/07/25 04:52:47;;;;;;;9.65;8.32;;;20.50;1.00;;;;;;5054919;28;20047;-26
2022/07/25 04:55:13;;;;;;;12.77;8.50;;;20.50;99.90;;;;;;5054571;28;20510;-26
2022/07/25 04:57:39;;;;;;;11.20;9.32;;;20.60;99.90;;;;;;5052914;28;20111;-26
2022/07/25 05:00:07;;;;;;;11.07;8.95;;;20.60;99.90;;;;;;5053736;28;20052;-26
2022/07/25 05:02:33;;;;;;;10.13;8.18;;;20.70;99.90;;;;;;5052946;28;20055;-26
2022/07/25 05:04:59;;;;;;;10.05;8.68;;;20.70;99.90;;;;;;5053148;28;20483;-26
2022/07/25 05:07:25;;;;;;;9.75;8.45;;;20.80;1.00;;;;;;5052854;28;20065;-26
2022/07/25 05:09:50;;;;;;;9.70;8.18;;;20.80;1.00;;;;;;5054581;28;20454;-26
2022/07/25 05:12:16;;;;;;;9.60;8.52;;;20.80;1.00;;;;;;5056304;28;20498;-26
2022/07/25 05:14:43;;;;;;;12.25;8.98;;;20.90;1.00;;;;;;5056812;28;20120;-26
2022/07/25 05:17:10;;;;;;;10.25;8.30;;;20.90;1.00;;;;;;5053011;28;20052;-26
2022/07/25 05:19:36;;;;;;;9.98;8.88;;;20.90;1.00;;;;;;5052872;28;20111;-26
2022/07/25 05:22:02;;;;;;;10.52;9.52;;;21.00;1.00;;;;;;5050192;28;20057;-26
2022/07/25 05:24:28;;;;;;;11.02;9.32;;;21.00;99.90;;;;;;5053297;28;20048;-26
2022/07/25 05:26:54;;;;;;;12.18;9.57;;;21.00;1.00;;;;;;5052467;28;20041;-26
2022/07/25 05:29:19;;;;;;;9.30;8.40;;;21.10;1.00;;;;;;5052510;28;20586;-26
2022/07/25 05:31:45;;;;;;;11.27;9.48;;;21.10;1.00;;;;;;5053938;28;20109;-26
2022/07/25 05:34:10;;;;;;;13.63;10.35;;;21.10;1.00;;;;;;5053121;28;20134;-26
2022/07/25 05:36:36;;;;;;;11.10;9.90;;;21.10;1.00;;;;;;5055157;28;20047;-26
2022/07/25 05:39:02;;;;;;;11.93;9.93;;;21.10;1.00;;;;;;5053265;28;20491;-26
2022/07/25 05:41:28;;;;;;;12.23;10.60;;;21.20;1.00;;;;;;5053024;28;20120;-26
2022/07/25 05:43:54;;;;;;;12.55;11.15;;;21.20;99.90;;;;;;5053731;28;20183;-27
2022/07/25 05:46:20;;;;;;;12.20;10.65;;;21.20;99.90;;;;;;5053077;28;20048;-27
2022/07/25 05:48:45;;;;;;;12.57;11.25;;;21.30;99.90;;;;;;5052564;28;20036;-26
2022/07/25 05:51:11;;;;;;;13.20;11.30;;;21.30;99.90;;;;;;5053704;28;20045;-26
2022/07/25 05:53:37;;;;;;;12.88;10.25;;;21.30;99.90;;;;;;5054042;28;20041;-26
2022/07/25 05:56:03;;;;;;;11.43;10.23;;;21.30;99.90;;;;;;5052458;28;20045;-26
2022/07/25 05:58:29;;;;;;;10.63;9.63;;;21.40;99.90;;;;;;5052653;28;20116;-26
2022/07/25 06:00:55;;;;;;;13.15;10.75;;;21.50;99.90;;;;;;5053043;28;20526;-26
2022/07/25 06:03:21;;;;;;;12.52;11.23;;;21.60;99.90;;;;;;5053524;28;20072;-26
2022/07/25 06:05:47;;;;;;;13.15;11.77;;;21.70;99.90;;;;;;5053420;28;20061;-26
2022/07/25 06:08:13;;;;;;;12.73;11.43;;;21.70;99.90;;;;;;5052990;28;20390;-26
2022/07/25 06:10:40;;;;;;;11.90;10.77;;;21.80;99.90;;;;;;5056580;28;20124;-26
2022/07/25 06:13:06;;;;;;;14.43;11.23;;;21.80;99.90;;;;;;5052803;28;20114;-26
2022/07/25 06:15:32;;;;;;;14.40;11.80;;;21.80;99.90;;;;;;5054032;28;20124;-26
2022/07/25 06:17:58;;;;;;;11.90;10.73;;;21.90;94.40;;;;;;5057505;28;20053;-26
2022/07/25 06:20:24;;;;;;;12.15;10.95;;;22.10;98.00;;;;;;5056112;28;20466;-27
2022/07/25 06:22:50;;;;;;;14.65;11.73;;;22.20;54.00;;;;;;5057457;28;20048;-26
2022/07/25 06:25:16;;;;;;;11.90;10.63;;;22.20;21.10;;;;;;5039453;28;20049;-27
2022/07/25 06:27:41;;;;;;;12.57;11.27;;;22.20;14.10;;;;;;5057351;28;20067;-26
2022/07/25 06:30:08;;;;;;;11.23;10.00;;;22.20;46.80;;;;;;5054609;28;20072;-26
2022/07/25 06:32:34;;;;;;;14.02;10.65;;;22.40;36.20;;;;;;5056288;28;20141;-26
2022/07/25 06:35:00;;;;;;;11.40;9.15;;;22.60;1.00;;;;;;5055314;28;20060;-26
2022/07/25 06:37:26;;;;;;;11.32;9.30;;;22.70;1.00;;;;;;5056431;28;20106;-26
2022/07/25 06:39:52;;;;;;;14.60;9.73;;;22.70;1.00;;;;;;5056239;28;20414;-26
2022/07/25 06:42:17;;;;;;;12.20;10.32;;;22.60;1.00;;;;;;5055048;28;20037;-26
2022/07/25 06:44:43;;;;;;;13.07;10.75;;;22.60;1.00;;;;;;5045367;28;20046;-27
2022/07/25 06:47:11;;;;;;;13.43;10.50;;;22.60;1.00;;;;;;5045066;28;20049;-26
2022/07/25 06:49:41;;;;;;;10.65;9.60;;;22.60;1.00;;;;;;5043397;28;20041;-26
2022/07/25 06:52:07;;;;;;;11.25;9.23;;;22.60;1.00;;;;;;5056036;28;20094;-26
2022/07/25 06:54:33;;;;;;;11.35;10.15;;;22.50;1.00;;;;;;5056783;28;20085;-26
2022/07/25 06:56:59;;;;;;;14.20;10.40;;;22.60;1.00;;;;;;5056692;28;20132;-26
2022/07/25 06:59:25;;;;;;;10.90;9.73;;;22.70;1.00;;;;;;5056367;28;20119;-26
2022/07/25 07:01:51;;;;;;;11.88;10.60;;;22.90;1.00;;;;;;5056970;28;20057;-26
2022/07/25 07:04:17;;;;;;;10.90;9.30;;;23.00;1.00;;;;;;5055984;28;20410;-26
2022/07/25 07:06:42;;;;;;;11.23;9.00;;;23.20;1.00;;;;;;5055009;28;20091;-26
2022/07/25 07:09:09;;;;;;;14.65;10.10;;;23.20;1.00;;;;;;5056455;28;20497;-26
2022/07/25 07:11:35;;;;;;;10.70;9.63;;;23.20;1.00;;;;;;5055859;28;20102;-26
2022/07/25 07:14:04;;;;;;;10.63;9.32;;;23.20;1.00;;;;;;5056504;28;20037;-26
2022/07/25 07:16:30;;;;;;;13.55;10.40;;;23.30;1.00;;;;;;5056412;28;20483;-26
2022/07/25 07:18:56;;;;;;;11.63;9.45;;;23.30;1.00;;;;;;5055158;28;20045;-27
2022/07/25 07:21:22;;;;;;;13.43;9.85;;;23.30;1.00;;;;;;5050020;28;20041;-26
2022/07/25 07:23:49;;;;;;;11.30;10.20;;;23.40;1.00;;;;;;5036352;28;20180;-26
2022/07/25 07:26:14;;;;;;;10.75;9.65;;;23.30;1.00;;;;;;5035683;28;20092;-26
2022/07/25 07:28:40;;;;;;;11.75;9.63;;;23.40;1.00;;;;;;5036261;28;20097;-26
2022/07/25 07:31:06;;;;;;;11.07;8.20;;;23.50;1.00;;;;;;5036324;28;20053;-26
2022/07/25 07:33:32;;;;;;;10.13;6.90;;;23.80;1.00;;;;;;5055313;28;20049;-26
2022/07/25 07:35:58;;;;;;;8.27;7.32;;;24.10;99.90;;;;;;5058136;28;20040;-26
2022/07/25 07:38:25;;;;;;;7.57;6.25;;;24.10;99.90;;;;;;5055225;28;20102;-26
2022/07/25 07:40:51;;;;;;;7.90;6.97;;;24.00;99.90;;;;;;5054778;28;20494;-27
2022/07/25 07:43:17;;;;;;;9.18;6.60;;;24.00;99.90;;;;;;5055813;28;20502;-26
2022/07/25 07:45:43;;;;;;;7.57;6.22;;;23.90;65.40;;;;;;5048884;28;20042;-26
2022/07/25 07:48:09;;;;;;;7.72;5.57;;;23.90;1.00;;;;;;5036180;28;20432;-27
2022/07/25 07:50:35;;;;;;;6.85;5.47;;;24.20;17.10;;;;;;5036157;28;20081;-26
2022/07/25 07:53:01;;;;;;;7.93;4.60;;;24.80;1.00;;;;;;5036445;28;20068;-26
2022/07/25 07:55:47;;;;;;;7.38;5.43;;;25.20;99.90;;;;;;5036994;28;20049;-27
2022/07/25 07:58:17;;;;;;;5.85;5.03;;;25.10;99.90;;;;;;5052913;28;20402;-27
2022/07/25 08:00:45;;;;;;;7.30;4.88;;;24.80;99.90;;;;;;5055626;28;20107;-26
2022/07/25 08:03:11;;;;;;;7.80;4.03;;;24.60;99.90;;;;;;5055442;28;20040;-26
2022/07/25 08:05:41;;;;;;;6.40;4.13;;;24.40;99.90;;;;;;5045978;28;20103;-26
2022/07/25 08:08:09;;;;;;;7.15;4.50;;;24.50;99.90;;;;;;5036351;28;20144;-26
2022/07/25 08:10:37;;;;;;;7.53;4.90;;;25.30;99.90;;;;;;5035813;28;20053;-26
2022/07/25 08:13:16;;;;;;;6.93;4.75;;;25.50;99.90;;;;;;5043755;28;20057;-27
2022/07/25 08:15:44;;;;;;;10.63;5.22;;;25.40;53.70;;;;;;5040048;28;20151;-26
2022/07/25 08:18:10;;;;;;;7.93;5.07;;;25.10;99.90;;;;;;5055172;28;20111;-26
2022/07/25 08:20:36;;;;;;;6.47;4.25;;;24.80;99.90;;;;;;5055161;28;20056;-27
2022/07/25 08:23:02;;;;;;;8.00;5.50;;;24.50;99.90;;;;;;5055669;28;20052;-26
2022/07/25 08:25:29;;;;;;;7.15;4.72;;;24.10;99.90;;;;;;5053834;28;20052;-26
2022/07/25 08:27:55;;;;;;;9.35;5.25;;;23.80;1.00;;;;;;5051809;28;20076;-26
2022/07/25 08:30:20;;;;;;;9.90;5.47;;;23.30;86.60;;;;;;5055866;28;20052;-25
2022/07/25 08:32:54;;;;;;;8.23;4.88;;;23.10;99.90;;;;;;5054053;28;20390;-26
2022/07/25 08:35:21;;;;;;;4.47;3.35;;;22.90;99.90;;;;;;5055236;28;20045;-26
2022/07/25 08:37:47;;;;;;;3.45;1.83;;;22.70;99.90;;;;;;5052510;28;20390;-26
2022/07/25 08:40:15;;;;;;;2.30;1.80;;;22.40;99.90;;;;;;5053354;28;20045;-26
2022/07/25 08:42:40;;;;;;;2.70;2.30;;;22.00;99.90;;;;;;5054744;28;20092;-26
2022/07/25 08:45:08;;;;;;;11.05;2.70;;;21.80;99.90;;;;;;5054425;28;20084;-26
2022/07/25 08:47:35;;;;;;;3.28;2.53;;;21.70;99.90;;;;;;5054186;28;20049;-26
2022/07/25 08:50:06;;;;;;;3.78;2.33;;;21.70;99.90;;;;;;5053859;28;20123;-26
2022/07/25 08:52:36;;;;;;;2.28;1.75;;;21.70;99.90;;;;;;5053425;28;20041;-26
2022/07/25 08:55:07;;;;;;;4.25;1.55;;;21.70;99.90;;;;;;5053909;28;20055;-26
2022/07/25 08:57:34;;;;;;;1.83;1.20;;;21.70;99.90;;;;;;5054375;28;20060;-25
2022/07/25 09:00:02;;;;;;;2.72;1.40;;;21.80;99.90;;;;;;5055064;28;20040;-26
2022/07/25 09:02:31;;;;;;;4.90;1.50;;;21.80;99.90;;;;;;5054431;28;20044;-26
2022/07/25 09:04:57;;;;;;;1.67;1.20;;;21.90;99.90;;;;;;5039813;28;20045;-26
2022/07/25 09:07:34;;;;;;;2.85;1.15;;;22.00;99.90;;;;;;5042202;28;20057;-26
2022/07/25 09:10:14;;;;;;;6.55;1.52;;;22.00;1.00;;;;;;5050756;28;20039;-26
2022/07/25 09:12:41;;;;;;;2.90;1.50;;;22.00;16.30;;;;;;5053041;28;20049;-26
2022/07/25 09:15:08;;;;;;;5.78;1.95;;;21.90;1.70;;;;;;5054101;28;20049;-26
2022/07/25 09:17:37;;;;;;;4.18;1.95;;;21.80;1.00;;;;;;5054227;28;20102;-26
2022/07/25 09:20:05;;;;;;;3.20;1.63;;;21.80;1.00;;;;;;5051819;28;20049;-26
2022/07/25 09:22:41;;;;;;;3.10;1.30;;;21.90;1.00;;;;;;5051483;28;20069;-26
2022/07/25 09:25:19;;;;;;;2.90;1.45;;;21.90;1.00;;;;;;5055637;28;20043;-27
2022/07/25 09:27:45;;;;;;;2.67;1.48;;;22.10;99.90;;;;;;5060389;28;20083;-26
2022/07/25 09:30:12;;;;;;;2.45;1.42;;;22.20;1.00;;;;;;5068939;28;20506;-26
2022/07/25 09:32:40;;;;;;;8.07;1.63;;;22.30;1.00;;;;;;5053823;28;20072;-26
2022/07/25 09:35:06;;;;;;;6.03;1.38;;;22.40;15.90;;;;;;5053883;28;20049;-26
2022/07/25 09:37:32;;;;;;;3.22;1.40;;;22.70;1.00;;;;;;5052834;28;20079;-26
2022/07/25 09:39:59;;;;;;;3.63;1.30;;;23.10;1.00;;;;;;5053764;28;20475;-26
2022/07/25 09:42:31;;;;;;;6.22;1.55;;;23.40;99.90;;;;;;5050077;28;20449;-26
2022/07/25 09:45:02;;;;;;;3.40;1.30;;;23.70;99.90;;;;;;5056250;28;20107;-26
2022/07/25 09:47:29;;;;;;;1.95;1.23;;;23.60;99.90;;;;;;5053370;28;20048;-26
2022/07/25 09:49:55;;;;;;;5.45;1.63;;;23.40;99.90;;;;;;5053430;28;20045;-25
2022/07/25 09:52:21;;;;;;;5.63;1.65;;;23.20;1.00;;;;;;5052994;28;20056;-25
2022/07/25 09:54:48;;;;;;;6.93;1.70;;;23.00;1.00;;;;;;5068422;28;20064;-26
2022/07/25 09:57:17;;;;;;;6.07;1.80;;;22.70;1.00;;;;;;5053589;28;20052;-26
2022/07/25 09:59:43;;;;;;;5.15;1.95;;;22.50;99.90;;;;;;5053468;28;20044;-25
2022/07/25 10:02:28;;;;;;;4.90;2.17;;;22.20;99.90;;;;;;5048496;28;20041;-25
2022/07/25 10:05:15;;;;;;;6.20;2.60;;;21.90;1.00;;;;;;5033297;28;20049;-23
2022/07/25 10:08:04;;;;;;;5.30;2.53;;;21.50;22.10;;;;;;5047963;28;20049;-23
2022/07/25 10:10:36;;;;;;;4.78;2.15;;;21.30;99.90;;;;;;5033711;28;20046;-24
2022/07/25 10:13:13;;;;;;;4.25;2.78;;;21.50;99.90;;;;;;5041300;28;20071;-23
2022/07/25 10:16:13;;;;;;;3.63;2.28;;;21.90;1.00;;;;;;5055439;28;20045;-23
2022/07/25 10:18:47;;;;;;;5.28;2.33;;;22.10;99.90;;;;;;5053908;28;20045;-23
2022/07/25 10:21:13;;;;;;;5.63;2.15;;;22.00;99.90;;;;;;5049796;28;20102;-23
2022/07/25 10:23:38;;;;;;;6.97;2.10;;;21.90;99.90;;;;;;5052204;28;20044;-24
2022/07/25 10:26:18;;;;;;;7.43;2.40;;;21.90;99.90;;;;;;5053286;28;20045;-24
2022/07/25 10:28:55;;;;;;;3.63;2.40;;;21.90;99.90;;;;;;5053337;28;20549;-24
2022/07/25 10:31:32;;;;;;;6.25;2.10;;;21.90;99.90;;;;;;5050636;28;20122;-24
2022/07/25 10:34:00;;;;;;;6.15;2.80;;;22.10;99.90;;;;;;5053331;28;20045;-25
2022/07/25 10:36:31;;;;;;;5.57;2.10;;;22.20;99.90;;;;;;5051627;28;20499;-24
2022/07/25 10:38:59;;;;;;;7.35;2.85;;;22.30;99.90;;;;;;5053027;28;20496;-25
2022/07/25 10:41:28;;;;;;;7.45;1.98;;;22.30;99.90;;;;;;5051221;28;20048;-25
2022/07/25 10:44:01;;;;;;;6.90;2.13;;;22.40;99.90;;;;;;5053292;28;20045;-25
2022/07/25 10:46:29;;;;;;;7.55;2.40;;;22.50;99.90;;;;;;5051826;28;20132;-25
2022/07/25 10:49:01;;;;;;;3.78;2.00;;;22.70;99.90;;;;;;5052921;28;20041;-25
2022/07/25 10:51:36;;;;;;;6.93;2.13;;;23.30;99.90;;;;;;5050948;28;20079;-25
2022/07/25 10:54:14;;;;;;;4.97;1.65;;;23.40;55.90;;;;;;5062215;28;20048;-25
2022/07/25 10:56:59;;;;;;;7.80;2.70;;;23.30;1.00;;;;;;5053070;28;20045;-26
2022/07/25 10:59:31;;;;;;;9.07;2.38;;;23.50;25.80;;;;;;5052897;28;20049;-25
2022/07/25 11:01:58;;;;;;;5.68;1.88;;;23.30;1.00;;;;;;5053537;28;20051;-25
2022/07/25 11:04:24;;;;;;;7.40;1.70;;;23.30;13.00;;;;;;5056675;28;20053;-26
2022/07/25 11:06:50;;;;;;;9.00;2.35;;;23.00;1.00;;;;;;5055408;28;20049;-25
2022/07/25 11:09:23;;;;;;;8.30;3.25;;;22.80;1.00;;;;;;5055627;28;20080;-25
2022/07/25 11:11:50;;;;;;;8.02;2.55;;;22.60;1.00;;;;;;5056629;28;20055;-26
2022/07/25 11:14:22;;;;;;;6.78;2.17;;;22.70;99.90;;;;;;5056456;28;20053;-25
2022/07/25 11:16:49;;;;;;;7.00;2.13;;;22.80;99.90;;;;;;5057305;28;20049;-25
2022/07/25 11:19:19;;;;;;;7.90;1.63;;;22.90;1.00;;;;;;5054093;28;20045;-25
2022/07/25 11:21:56;;;;;;;5.00;1.77;;;23.00;1.00;;;;;;5056356;28;20131;-25
2022/07/25 11:24:37;;;;;;;9.27;2.22;;;23.10;99.90;;;;;;5056280;28;20041;-26
2022/07/25 11:27:03;;;;;;;8.65;2.03;;;23.10;99.90;;;;;;5055930;28;20045;-26
2022/07/25 11:29:29;;;;;;;8.05;2.67;;;22.80;22.10;;;;;;5054059;28;20037;-26
2022/07/25 11:32:06;;;;;;;6.82;2.33;;;22.50;99.90;;;;;;5055270;28;20129;-26
2022/07/25 11:34:35;;;;;;;6.20;2.10;;;22.10;17.80;;;;;;5056209;28;20044;-26
2022/07/25 11:37:07;;;;;;;10.82;2.20;;;21.70;99.90;;;;;;5056667;28;20056;-26
2022/07/25 11:39:38;;;;;;;11.60;2.67;;;21.70;99.90;;;;;;5054735;28;20505;-25
2022/07/25 11:42:16;;;;;;;6.90;2.15;;;22.10;99.90;;;;;;5056693;28;20127;-25
2022/07/25 11:44:43;;;;;;;7.38;2.38;;;22.60;96.80;;;;;;5054957;28;20049;-26
2022/07/25 11:47:27;;;;;;;7.07;2.15;;;22.80;1.00;;;;;;5056491;28;20131;-26
2022/07/25 11:49:55;;;;;;;7.07;2.05;;;22.60;99.90;;;;;;5053661;28;20063;-26
2022/07/25 11:52:22;;;;;;;7.97;2.22;;;22.40;1.00;;;;;;5059957;28;20072;-26
2022/07/25 11:55:00;;;;;;;7.95;1.92;;;22.20;99.90;;;;;;5055155;28;20057;-26
2022/07/25 11:57:29;;;;;;;9.55;1.95;;;22.30;1.00;;;;;;5055787;28;20041;-26
2022/07/25 11:59:58;;;;;;;13.82;3.22;;;22.30;1.00;;;;;;5055577;28;20120;-26
2022/07/25 12:02:26;;;;;;;10.52;2.92;;;22.40;6.30;;;;;;5055935;28;20048;-26
2022/07/25 12:05:00;;;;;;;8.52;2.67;;;22.30;1.00;;;;;;5054421;28;20049;-25
2022/07/25 12:07:54;;;;;;;12.57;2.50;;;22.30;24.30;;;;;;5054404;28;20560;-26
2022/07/25 12:10:25;;;;;;;6.00;2.58;;;22.20;1.00;;;;;;5054765;28;20472;-25
2022/07/25 12:12:55;;;;;;;9.25;2.38;;;22.20;1.00;;;;;;5054018;28;20049;-26
2022/07/25 12:15:23;;;;;;;9.10;2.45;;;22.20;1.00;;;;;;5055419;28;20395;-26
2022/07/25 12:17:53;;;;;;;6.30;1.90;;;22.20;99.90;;;;;;5055352;28;20048;-25
2022/07/25 12:20:27;;;;;;;9.25;2.58;;;22.50;99.90;;;;;;5055231;28;20056;-25
2022/07/25 12:22:58;;;;;;;11.57;2.53;;;23.00;1.00;;;;;;5054191;28;20491;-26
2022/07/25 12:25:25;;;;;;;5.80;1.70;;;23.00;99.90;;;;;;5055233;28;20037;-26
2022/07/25 12:27:51;;;;;;;7.35;1.67;;;22.90;64.00;;;;;;5055444;28;20040;-25
2022/07/25 12:30:17;;;;;;;7.15;1.60;;;22.80;1.00;;;;;;5055177;28;20092;-26
2022/07/25 12:32:43;;;;;;;5.15;1.42;;;22.60;7.00;;;;;;5053978;28;20041;-26
2022/07/25 12:35:12;;;;;;;8.13;2.53;;;22.30;78.40;;;;;;5054308;28;20103;-25
2022/07/25 12:37:39;;;;;;;6.38;1.77;;;22.30;99.90;;;;;;5038173;28;20048;-25
2022/07/25 12:40:06;;;;;;;6.20;2.13;;;22.40;99.90;;;;;;5052196;28;20506;-26
2022/07/25 12:42:32;;;;;;;7.18;1.88;;;22.70;99.90;;;;;;5064608;28;20036;-26
2022/07/25 12:44:57;;;;;;;9.63;2.53;;;23.00;99.90;;;;;;5052997;28;20518;-27
2022/07/25 12:47:28;;;;;;;6.55;1.92;;;23.00;1.00;;;;;;5054345;28;20049;-25
2022/07/25 12:49:54;;;;;;;7.80;2.00;;;23.10;14.70;;;;;;5055339;28;20041;-26
2022/07/25 12:52:20;;;;;;;5.15;1.38;;;23.20;1.00;;;;;;5055520;28;20067;-26